createdAt,value
2022-09-06T00:00:15.277Z,3.58
2022-09-06T00:02:44.563Z,4.32
2022-09-06T00:05:12.611Z,6.60
2022-09-06T00:07:39.911Z,4.15
2022-09-06T00:10:07.764Z,2.63
2022-09-06T00:12:35.378Z,3.08
2022-09-06T00:15:03.258Z,4.03
2022-09-06T00:17:31.206Z,11.43
2022-09-06T00:19:58.075Z,5.65
2022-09-06T00:22:25.463Z,2.87
2022-09-06T00:24:52.401Z,5.10
2022-09-06T00:27:19.363Z,3.55
2022-09-06T00:29:46.661Z,6.55
2022-09-06T00:32:14.079Z,3.90
2022-09-06T00:34:41.028Z,4.27
2022-09-06T00:37:08.101Z,4.88
2022-09-06T00:39:35.761Z,5.53
2022-09-06T00:42:03.122Z,4.88
2022-09-06T00:44:29.941Z,6.72
2022-09-06T00:46:56.753Z,6.03
2022-09-06T00:49:31.923Z,5.15
2022-09-06T00:52:06.272Z,4.13
2022-09-06T00:54:36.377Z,7.47
2022-09-06T00:57:03.998Z,5.03
2022-09-06T00:59:36.797Z,5.03
2022-09-06T01:02:05.629Z,3.30
2022-09-06T01:04:33.813Z,5.22
2022-09-06T01:07:16.447Z,4.63
2022-09-06T01:10:09.942Z,4.60
2022-09-06T01:13:06.134Z,8.97
2022-09-06T01:15:39.398Z,4.60
2022-09-06T01:18:27.622Z,4.75
2022-09-06T01:21:38.179Z,4.75
2022-09-06T01:24:42.581Z,8.13
2022-09-06T01:27:44.973Z,6.70
2022-09-06T01:30:14.635Z,7.30
2022-09-06T01:33:04.142Z,7.72
2022-09-06T01:35:57.814Z,5.80
2022-09-06T01:38:25.027Z,10.88
2022-09-06T01:40:52.653Z,5.50
2022-09-06T01:43:29.994Z,5.78
2022-09-06T01:46:07.683Z,9.68
2022-09-06T01:48:53.558Z,8.45
2022-09-06T01:51:56.305Z,7.22
2022-09-06T01:55:01.547Z,6.30
2022-09-06T01:58:07.256Z,8.57
2022-09-06T02:00:45.082Z,6.47
2022-09-06T02:03:36.029Z,7.80
2022-09-06T02:06:18.227Z,6.97
2022-09-06T02:08:49.719Z,7.47
2022-09-06T02:11:17.306Z,8.02
2022-09-06T02:13:54.153Z,7.03
2022-09-06T02:16:26.511Z,6.70
2022-09-06T02:19:13.630Z,9.18
2022-09-06T02:21:45.486Z,6.63
2022-09-06T02:24:21.465Z,11.30
2022-09-06T02:26:49.189Z,10.55
2022-09-06T02:29:18.317Z,9.02
2022-09-06T02:31:54.691Z,9.07
2022-09-06T02:34:22.523Z,8.20
2022-09-06T02:36:49.957Z,12.50
2022-09-06T02:39:19.650Z,10.13
2022-09-06T02:41:48.495Z,12.65
2022-09-06T02:44:16.299Z,13.50
2022-09-06T02:46:43.161Z,12.87
2022-09-06T02:49:10.501Z,10.15
2022-09-06T02:51:39.264Z,9.25
2022-09-06T02:54:07.638Z,10.85
2022-09-06T02:56:38.712Z,9.32
2022-09-06T02:59:05.754Z,11.87
2022-09-06T03:01:33.849Z,10.07
2022-09-06T03:04:00.989Z,11.52
2022-09-06T03:06:31.767Z,11.88
2022-09-06T03:09:00.175Z,11.15
2022-09-06T03:11:28.120Z,8.90
2022-09-06T03:13:54.984Z,11.00
2022-09-06T03:16:25.151Z,10.20
2022-09-06T03:18:52.440Z,12.10
2022-09-06T03:21:19.507Z,9.57
2022-09-06T03:23:46.455Z,12.63
2022-09-06T03:26:13.437Z,9.90
2022-09-06T03:28:40.639Z,14.52
2022-09-06T03:31:10.127Z,10.38
2022-09-06T03:33:37.383Z,15.35
2022-09-06T03:36:05.105Z,11.47
2022-09-06T03:38:31.909Z,13.88
2022-09-06T03:40:58.748Z,10.57
2022-09-06T03:43:28.098Z,17.08
2022-09-06T03:46:00.290Z,9.38
2022-09-06T03:48:29.351Z,11.83
2022-09-06T03:50:58.698Z,10.82
2022-09-06T03:53:27.351Z,11.15
2022-09-06T03:55:55.673Z,9.68
2022-09-06T03:58:23.957Z,13.70
2022-09-06T04:01:00.935Z,14.60
2022-09-06T04:03:27.845Z,13.60
2022-09-06T04:05:54.895Z,14.20
2022-09-06T04:08:21.747Z,18.83
2022-09-06T04:10:55.001Z,14.60
2022-09-06T04:13:23.228Z,13.73
2022-09-06T04:15:50.961Z,15.05
2022-09-06T04:18:18.141Z,17.27
2022-09-06T04:20:47.888Z,12.38
2022-09-06T04:23:15.162Z,13.38
2022-09-06T04:25:48.842Z,15.00
2022-09-06T04:28:18.284Z,15.30
2022-09-06T04:30:51.546Z,14.27
2022-09-06T04:33:18.565Z,13.18
2022-09-06T04:35:49.992Z,15.57
2022-09-06T04:38:17.679Z,18.47
2022-09-06T04:40:44.545Z,17.48
2022-09-06T04:43:11.699Z,15.68
2022-09-06T04:45:38.800Z,17.42
2022-09-06T04:48:05.886Z,13.80
2022-09-06T04:50:32.854Z,17.20
2022-09-06T04:53:07.866Z,13.43
2022-09-06T04:55:35.377Z,16.63
2022-09-06T04:58:03.430Z,22.58
2022-09-06T05:00:32.079Z,16.67
2022-09-06T05:02:59.150Z,17.23
2022-09-06T05:05:26.038Z,17.38
2022-09-06T05:07:54.249Z,16.17
2022-09-06T05:10:22.614Z,17.25
2022-09-06T05:12:51.986Z,19.77
2022-09-06T05:15:19.760Z,19.67
2022-09-06T05:17:46.855Z,23.77
2022-09-06T05:20:13.998Z,19.10
2022-09-06T05:22:41.425Z,18.77
2022-09-06T05:25:09.608Z,18.70
2022-09-06T05:27:39.835Z,15.33
2022-09-06T05:30:07.104Z,16.75
2022-09-06T05:32:34.016Z,18.05
2022-09-06T05:35:00.864Z,17.73
2022-09-06T05:37:27.668Z,20.15
2022-09-06T05:39:54.632Z,19.97
2022-09-06T05:42:21.480Z,17.80
2022-09-06T05:44:48.340Z,31.52
2022-09-06T05:47:15.212Z,21.58
2022-09-06T05:49:42.050Z,20.52
2022-09-06T05:52:08.976Z,17.03
2022-09-06T05:54:35.825Z,17.85
2022-09-06T05:57:02.769Z,15.75
2022-09-06T05:59:29.679Z,20.70
2022-09-06T06:01:56.650Z,18.67
2022-09-06T06:04:23.515Z,18.07
2022-09-06T06:06:50.589Z,19.73
2022-09-06T06:09:18.884Z,20.17
2022-09-06T06:11:45.778Z,18.08
2022-09-06T06:14:12.790Z,18.42
2022-09-06T06:16:39.749Z,18.37
2022-09-06T06:19:06.721Z,22.48
2022-09-06T06:21:34.489Z,18.38
2022-09-06T06:24:03.958Z,19.05
2022-09-06T06:26:33.334Z,16.88
2022-09-06T06:29:03.657Z,15.77
2022-09-06T06:31:32.638Z,20.88
2022-09-06T06:34:03.657Z,17.13
2022-09-06T06:36:33.957Z,15.85
2022-09-06T06:39:02.137Z,16.77
2022-09-06T06:41:31.796Z,17.17
2022-09-06T06:44:00.517Z,13.23
2022-09-06T06:46:29.730Z,17.83
2022-09-06T06:48:56.855Z,18.45
2022-09-06T06:51:29.441Z,16.65
2022-09-06T06:53:59.996Z,14.13
2022-09-06T06:56:33.459Z,14.77
2022-09-06T06:59:02.235Z,18.75
2022-09-06T07:01:31.151Z,21.27
2022-09-06T07:03:58.368Z,24.23
2022-09-06T07:09:12.084Z,16.98
2022-09-06T07:11:39.205Z,18.30
2022-09-06T07:14:06.222Z,15.10
2022-09-06T07:16:33.135Z,16.75
2022-09-06T07:19:00.224Z,16.53
2022-09-06T07:26:30.446Z,14.65
2022-09-06T07:29:00.205Z,15.52
2022-09-06T07:34:16.013Z,12.48
2022-09-06T07:36:42.934Z,14.02
2022-09-06T07:39:09.844Z,12.27
2022-09-06T07:41:36.768Z,14.43
2022-09-06T07:44:03.590Z,12.23
2022-09-06T07:46:30.539Z,12.43
2022-09-06T07:48:57.528Z,16.58
2022-09-06T07:51:24.466Z,13.32
2022-09-06T07:54:12.852Z,11.32
2022-09-06T07:56:42.453Z,15.93
2022-09-06T07:59:09.445Z,10.25
2022-09-06T08:01:40.505Z,11.25
2022-09-06T08:04:17.835Z,9.85
2022-09-06T08:09:37.636Z,9.60
2022-09-06T08:12:07.401Z,11.75
2022-09-06T08:14:35.135Z,11.50
2022-09-06T08:17:02.699Z,10.18
2022-09-06T08:19:29.505Z,11.45
2022-09-06T08:21:56.422Z,11.50
2022-09-06T08:24:23.479Z,16.63
2022-09-06T08:26:50.349Z,8.50
2022-09-06T08:29:17.523Z,14.25
2022-09-06T08:31:45.031Z,10.63
2022-09-06T08:34:15.289Z,12.07
2022-09-06T08:36:42.862Z,10.20
2022-09-06T08:39:10.533Z,16.92
2022-09-06T08:41:40.094Z,9.95
2022-09-06T08:47:19.890Z,12.07
2022-09-06T08:50:00.913Z,8.40
2022-09-06T08:52:49.480Z,10.43
2022-09-06T08:55:49.499Z,8.98
2022-09-06T08:58:33.321Z,7.00
2022-09-06T09:01:10.661Z,8.27
2022-09-06T09:03:39.751Z,8.73
2022-09-06T09:06:10.205Z,8.18
2022-09-06T09:08:37.011Z,8.13
2022-09-06T09:11:07.291Z,10.20
2022-09-06T09:13:56.330Z,7.10
2022-09-06T09:16:24.057Z,8.63
2022-09-06T09:18:57.193Z,6.85
2022-09-06T09:21:30.400Z,9.50
2022-09-06T09:24:02.590Z,7.72
2022-09-06T09:26:37.404Z,9.32
2022-09-06T09:29:09.373Z,7.23
2022-09-06T09:31:53.524Z,6.43
2022-09-06T09:34:36.125Z,8.60
2022-09-06T09:40:28.258Z,8.25
2022-09-06T09:43:08.518Z,6.10
2022-09-06T09:45:35.368Z,10.80
2022-09-06T09:48:29.521Z,8.13
2022-09-06T09:50:56.469Z,11.55
2022-09-06T09:53:24.308Z,7.93
2022-09-06T09:55:58.729Z,5.35
2022-09-06T09:58:33.440Z,6.27
2022-09-06T10:01:11.098Z,7.93
2022-09-06T10:09:33.688Z,7.32
2022-09-06T10:12:01.669Z,10.60
2022-09-06T10:14:49.557Z,7.43
2022-09-06T10:17:26.607Z,12.68
2022-09-06T10:19:54.032Z,9.65
2022-09-06T10:22:30.029Z,7.40
2022-09-06T10:25:15.053Z,6.20
2022-09-06T10:28:10.885Z,6.93
2022-09-06T10:31:16.617Z,6.43
2022-09-06T10:33:49.556Z,9.77
2022-09-06T10:36:29.848Z,7.78
2022-09-06T10:39:03.967Z,6.85
2022-09-06T10:41:46.817Z,10.65
2022-09-06T10:44:32.169Z,11.83
2022-09-06T10:47:10.558Z,9.30
2022-09-06T10:49:42.926Z,12.38
2022-09-06T10:52:15.256Z,9.70
2022-09-06T10:54:42.257Z,12.23
2022-09-06T11:00:14.372Z,9.27
2022-09-06T11:06:11.434Z,9.95
2022-09-06T11:11:20.811Z,13.60
2022-09-06T11:13:47.846Z,14.80
2022-09-06T11:16:29.502Z,10.13
2022-09-06T11:19:04.816Z,11.32
2022-09-06T11:21:49.540Z,12.82
2022-09-06T11:24:22.768Z,10.25
2022-09-06T11:27:06.242Z,16.33
2022-09-06T11:29:34.831Z,13.67
2022-09-06T11:32:20.341Z,12.87
2022-09-06T11:34:59.208Z,12.85
2022-09-06T11:37:35.293Z,22.25
2022-09-06T11:42:52.232Z,15.88
2022-09-06T11:45:39.258Z,12.80
2022-09-06T11:48:24.227Z,14.73
2022-09-06T11:50:54.212Z,15.85
2022-09-06T11:53:29.909Z,11.48
2022-09-06T11:56:02.703Z,13.95
2022-09-06T11:58:53.807Z,15.77
2022-09-06T12:01:20.828Z,16.67
2022-09-06T12:06:43.707Z,9.02
2022-09-06T12:09:33.980Z,9.82
2022-09-06T12:12:01.547Z,12.73
2022-09-06T12:14:40.275Z,12.40
2022-09-06T12:17:18.267Z,12.10
2022-09-06T12:19:49.626Z,13.63
2022-09-06T12:22:35.955Z,11.02
2022-09-06T12:25:40.631Z,15.60
2022-09-06T12:28:25.887Z,9.48
2022-09-06T12:30:55.765Z,11.38
2022-09-06T12:33:39.312Z,13.87
2022-09-06T12:36:22.605Z,10.83
2022-09-06T12:39:01.509Z,11.35
2022-09-06T12:41:32.232Z,11.25
2022-09-06T12:44:03.513Z,11.05
2022-09-06T12:46:32.261Z,7.53
2022-09-06T12:49:08.077Z,8.63
2022-09-06T12:51:36.686Z,6.00
2022-09-06T12:54:15.352Z,8.35
2022-09-06T12:56:42.249Z,8.10
2022-09-06T12:59:21.058Z,10.18
2022-09-06T13:02:08.387Z,8.50
2022-09-06T13:05:01.234Z,12.40
2022-09-06T13:07:29.503Z,10.63
2022-09-06T13:09:58.052Z,9.13
2022-09-06T13:12:48.970Z,9.18
2022-09-06T13:15:25.157Z,8.82
2022-09-06T13:17:54.156Z,10.32
2022-09-06T13:20:26.462Z,11.43
2022-09-06T13:23:04.947Z,15.37
2022-09-06T13:25:31.770Z,7.55
2022-09-06T13:27:59.070Z,13.43
2022-09-06T13:30:30.270Z,6.65
2022-09-06T13:32:57.211Z,8.93
2022-09-06T13:35:26.464Z,11.50
2022-09-06T13:37:53.465Z,9.02
2022-09-06T13:43:33.452Z,6.95
2022-09-06T13:46:11.695Z,11.13
2022-09-06T13:48:44.554Z,10.70
2022-09-06T13:51:12.144Z,9.57
2022-09-06T13:53:39.131Z,9.93
2022-09-06T13:56:08.489Z,11.00
2022-09-06T13:58:36.372Z,9.20
2022-09-06T14:01:08.608Z,6.07
2022-09-06T14:03:37.885Z,5.23
2022-09-06T14:06:04.798Z,9.10
2022-09-06T14:08:49.676Z,8.05
2022-09-06T14:11:22.392Z,6.25
2022-09-06T14:13:49.696Z,7.50
2022-09-06T14:16:16.569Z,6.18
2022-09-06T14:18:43.968Z,4.67
2022-09-06T14:21:11.010Z,4.67
2022-09-06T14:23:37.897Z,7.20
2022-09-06T14:26:05.537Z,6.43
2022-09-06T14:28:34.102Z,9.05
2022-09-06T14:31:28.328Z,8.43
2022-09-06T14:33:57.139Z,5.50
2022-09-06T14:36:26.612Z,5.87
2022-09-06T14:38:57.821Z,7.30
2022-09-06T14:41:25.435Z,5.25
2022-09-06T14:43:56.137Z,9.95
2022-09-06T14:46:25.011Z,7.20
2022-09-06T14:49:01.701Z,5.83
2022-09-06T14:51:30.326Z,7.67
2022-09-06T14:54:02.348Z,6.32
2022-09-06T14:56:30.436Z,8.00
2022-09-06T14:58:59.777Z,5.90
2022-09-06T15:01:37.137Z,8.05
2022-09-06T15:04:07.913Z,6.43
2022-09-06T15:06:36.898Z,4.73
2022-09-06T15:09:07.333Z,4.28
2022-09-06T15:11:46.578Z,3.85
2022-09-06T15:14:17.194Z,4.00
2022-09-06T15:16:45.863Z,4.00
2022-09-06T15:19:14.519Z,5.00
2022-09-06T15:21:42.891Z,6.77
2022-09-06T15:24:12.230Z,8.20
2022-09-06T15:26:43.729Z,4.32
2022-09-06T15:29:12.744Z,4.75
2022-09-06T15:31:41.655Z,4.38
2022-09-06T15:34:09.928Z,4.88
2022-09-06T15:36:38.069Z,6.27
2022-09-06T15:39:06.021Z,3.17
2022-09-06T15:41:37.557Z,4.68
2022-09-06T15:44:10.558Z,7.07
2022-09-06T15:46:50.437Z,5.15
2022-09-06T15:49:27.524Z,3.10
2022-09-06T15:52:00.896Z,6.53
2022-09-06T15:54:47.934Z,12.30
2022-09-06T15:57:16.308Z,4.35
2022-09-06T15:59:44.093Z,12.32
2022-09-06T16:02:11.798Z,5.70
2022-09-06T16:04:39.090Z,5.95
2022-09-06T16:07:06.898Z,6.57
2022-09-06T16:09:34.041Z,7.20
2022-09-06T16:12:01.157Z,6.38
2022-09-06T16:14:29.011Z,4.63
2022-09-06T16:16:58.666Z,5.88
2022-09-06T16:19:28.533Z,6.22
2022-09-06T16:21:55.974Z,5.13
2022-09-06T16:24:23.524Z,4.77
2022-09-06T16:26:50.836Z,3.70
2022-09-06T16:29:19.238Z,7.18
2022-09-06T16:31:47.071Z,3.80
2022-09-06T16:34:17.929Z,3.25
2022-09-06T16:36:45.078Z,2.90
2022-09-06T16:39:14.831Z,4.90
2022-09-06T16:41:47.097Z,4.65
2022-09-06T16:44:18.958Z,9.15
2022-09-06T16:46:48.977Z,4.40
2022-09-06T16:49:17.510Z,6.32
2022-09-06T16:51:48.153Z,3.30
2022-09-06T16:54:16.652Z,3.67
2022-09-06T16:56:44.869Z,5.50
2022-09-06T16:59:19.443Z,9.02
2022-09-06T17:01:47.441Z,8.10
2022-09-06T17:04:19.086Z,5.93
2022-09-06T17:07:03.601Z,8.13
2022-09-06T17:09:34.783Z,3.50
2022-09-06T17:12:03.519Z,4.03
2022-09-06T17:14:31.328Z,3.92
2022-09-06T17:17:07.593Z,9.95
2022-09-06T17:19:40.090Z,4.15
2022-09-06T17:22:15.099Z,6.13
2022-09-06T17:24:45.084Z,4.80
2022-09-06T17:27:22.805Z,3.72
2022-09-06T17:29:50.389Z,6.93
2022-09-06T17:32:17.598Z,4.07
2022-09-06T17:34:44.585Z,11.80
2022-09-06T17:37:20.268Z,8.63
2022-09-06T17:39:56.023Z,7.03
2022-09-06T17:42:26.200Z,8.18
2022-09-06T17:44:54.232Z,9.43
2022-09-06T17:47:24.313Z,4.65
2022-09-06T17:50:06.998Z,8.97
2022-09-06T17:52:35.595Z,11.38
2022-09-06T17:55:07.627Z,7.32
2022-09-06T17:57:37.639Z,6.63
2022-09-06T18:00:06.001Z,3.80
2022-09-06T18:02:43.801Z,7.13
2022-09-06T18:05:14.663Z,4.17
2022-09-06T18:07:43.421Z,7.32
2022-09-06T18:10:17.761Z,6.80
2022-09-06T18:12:48.216Z,7.15
2022-09-06T18:15:15.685Z,11.02
2022-09-06T18:17:42.955Z,7.20
2022-09-06T18:20:10.531Z,7.22
2022-09-06T18:22:39.852Z,6.40
2022-09-06T18:25:07.658Z,4.97
2022-09-06T18:27:34.618Z,5.18
2022-09-06T18:30:01.675Z,4.77
2022-09-06T18:32:28.733Z,7.43
2022-09-06T18:34:56.715Z,3.80
2022-09-06T18:37:23.915Z,4.40
2022-09-06T18:39:51.307Z,4.20
2022-09-06T18:42:18.876Z,3.97
2022-09-06T18:44:46.016Z,5.30
2022-09-06T18:47:13.854Z,3.63
2022-09-06T18:49:44.146Z,5.10
2022-09-06T18:52:11.678Z,4.47
2022-09-06T18:54:39.625Z,4.43
2022-09-06T18:57:07.184Z,2.88
2022-09-06T18:59:34.230Z,9.27
2022-09-06T19:02:01.430Z,9.75
2022-09-06T19:04:28.663Z,9.13
2022-09-06T19:06:58.434Z,7.13
2022-09-06T19:09:25.387Z,4.20
2022-09-06T19:11:53.144Z,5.47
2022-09-06T19:14:20.534Z,7.47
2022-09-06T19:16:48.726Z,3.92
2022-09-06T19:19:15.870Z,5.60
2022-09-06T19:21:44.108Z,6.63
2022-09-06T19:24:15.669Z,5.20
2022-09-06T19:26:46.621Z,5.60
2022-09-06T19:29:18.113Z,5.75
2022-09-06T19:31:46.221Z,4.57
2022-09-06T19:34:39.062Z,4.53
2022-09-06T19:37:06.480Z,5.68
2022-09-06T19:39:37.176Z,4.50
2022-09-06T19:42:06.942Z,7.78
2022-09-06T19:44:33.879Z,6.20
2022-09-06T19:47:00.870Z,5.53
2022-09-06T19:49:27.972Z,7.40
2022-09-06T19:51:54.862Z,7.07
2022-09-06T19:54:21.842Z,8.65
2022-09-06T19:56:51.168Z,5.90
2022-09-06T19:59:18.352Z,8.50
2022-09-06T20:01:46.753Z,5.97
2022-09-06T20:04:14.445Z,6.63
2022-09-06T20:09:26.107Z,7.55
2022-09-06T20:11:53.293Z,9.03
2022-09-06T20:14:21.361Z,5.85
2022-09-06T20:16:48.308Z,4.78
2022-09-06T20:19:16.374Z,6.80
2022-09-06T20:21:43.414Z,6.45
2022-09-06T20:24:10.680Z,6.20
2022-09-06T20:26:37.827Z,5.57
2022-09-06T20:29:05.095Z,8.65
2022-09-06T20:31:33.381Z,6.78
2022-09-06T20:34:02.183Z,7.72
2022-09-06T20:36:30.134Z,7.80
2022-09-06T20:38:57.189Z,7.93
2022-09-06T20:41:25.755Z,6.95
2022-09-06T20:43:54.962Z,7.10
2022-09-06T20:46:24.484Z,5.82
2022-09-06T20:48:52.288Z,12.73
2022-09-06T20:51:21.541Z,9.30
2022-09-06T20:53:53.455Z,14.55
2022-09-06T20:56:24.203Z,17.92
2022-09-06T20:58:54.008Z,11.50
2022-09-06T21:01:23.886Z,16.23
2022-09-06T21:03:53.553Z,12.52
2022-09-06T21:06:21.422Z,9.30
2022-09-06T21:08:49.429Z,21.98
2022-09-06T21:11:17.115Z,9.95
2022-09-06T21:13:44.046Z,9.50
2022-09-06T21:16:11.191Z,10.90
2022-09-06T21:18:38.092Z,13.50
2022-09-06T21:21:08.625Z,12.30
2022-09-06T21:23:37.842Z,12.10
2022-09-06T21:26:10.494Z,7.63
2022-09-06T21:28:39.882Z,13.47
2022-09-06T21:31:08.525Z,11.27
2022-09-06T21:33:44.234Z,14.88
2022-09-06T21:36:13.715Z,14.18
2022-09-06T21:38:42.889Z,14.50
2022-09-06T21:41:10.814Z,10.93
2022-09-06T21:43:37.747Z,13.13
2022-09-06T21:46:07.706Z,10.90
2022-09-06T21:48:39.199Z,12.93
2022-09-06T21:51:13.033Z,16.00
2022-09-06T21:53:40.435Z,17.27
2022-09-06T21:56:07.363Z,16.65
2022-09-06T21:58:34.348Z,16.23
2022-09-06T22:01:02.242Z,14.10
2022-09-06T22:03:35.174Z,15.45
2022-09-06T22:06:29.341Z,14.27
2022-09-06T22:08:57.938Z,16.05
2022-09-06T22:11:29.114Z,38.97
2022-09-06T22:14:04.171Z,30.95
2022-09-06T22:16:33.089Z,20.75
2022-09-06T22:19:00.078Z,18.17
2022-09-06T22:21:27.284Z,19.15
2022-09-06T22:24:00.881Z,32.08
2022-09-06T22:26:30.201Z,15.07
2022-09-06T22:29:02.247Z,13.63
2022-09-06T22:31:31.438Z,9.57
2022-09-06T22:33:58.940Z,12.02
2022-09-06T22:36:26.907Z,7.05
2022-09-06T22:38:57.379Z,14.15
2022-09-06T22:41:27.131Z,9.40
2022-09-06T22:43:54.525Z,12.07
2022-09-06T22:46:21.549Z,15.65
2022-09-06T22:48:49.289Z,10.25
2022-09-06T22:51:16.434Z,12.95
2022-09-06T22:53:44.241Z,22.20
2022-09-06T22:56:11.208Z,23.50
2022-09-06T22:58:38.369Z,19.75
2022-09-06T23:01:10.858Z,22.33
2022-09-06T23:03:38.204Z,23.13
2022-09-06T23:06:05.713Z,33.65
2022-09-06T23:08:35.331Z,22.23
2022-09-06T23:11:07.417Z,24.63
2022-09-06T23:13:35.008Z,26.25
2022-09-06T23:16:04.320Z,23.63
2022-09-06T23:18:31.301Z,23.75
2022-09-06T23:21:11.043Z,23.93
2022-09-06T23:23:38.555Z,20.15
2022-09-06T23:26:10.218Z,19.73
2022-09-06T23:28:38.320Z,17.23
2022-09-06T23:31:07.315Z,16.75
2022-09-06T23:33:36.399Z,14.10
2022-09-06T23:36:09.132Z,15.77
2022-09-06T23:38:37.872Z,16.10
2022-09-06T23:41:05.723Z,15.02
2022-09-06T23:43:33.149Z,16.48
2022-09-06T23:46:00.376Z,13.50
2022-09-06T23:48:27.474Z,13.35
2022-09-06T23:50:54.473Z,12.30
2022-09-06T23:53:21.586Z,11.98
2022-09-06T23:55:48.661Z,14.32
2022-09-06T23:58:15.919Z,10.93
